sensor_id;sensor_type;location;lat;lon;timestamp;temperature;humidity
54429;DHT22;40337;52.978;6.310;2023-05-16T00:02:19;9.80;99.90
54429;DHT22;40337;52.978;6.310;2023-05-16T00:04:45;9.80;99.90
54429;DHT22;40337;52.978;6.310;2023-05-16T00:07:10;9.80;99.90
54429;DHT22;40337;52.978;6.310;2023-05-16T00:09:37;9.80;99.90
54429;DHT22;40337;52.978;6.310;2023-05-16T00:12:02;9.70;99.90
54429;DHT22;40337;52.978;6.310;2023-05-16T00:14:28;9.70;99.90
54429;DHT22;40337;52.978;6.310;2023-05-16T00:16:54;9.70;99.90
54429;DHT22;40337;52.978;6.310;2023-05-16T00:19:22;9.60;99.90
54429;DHT22;40337;52.978;6.310;2023-05-16T00:21:48;9.60;99.90
54429;DHT22;40337;52.978;6.310;2023-05-16T00:24:13;9.60;99.90
54429;DHT22;40337;52.978;6.310;2023-05-16T00:26:39;9.60;99.90
54429;DHT22;40337;52.978;6.310;2023-05-16T00:29:05;9.60;99.90
54429;DHT22;40337;52.978;6.310;2023-05-16T00:31:31;9.50;99.90
54429;DHT22;40337;52.978;6.310;2023-05-16T00:33:57;9.50;99.90
54429;DHT22;40337;52.978;6.310;2023-05-16T00:36:22;9.50;99.90
54429;DHT22;40337;52.978;6.310;2023-05-16T00:38:48;9.40;99.90
54429;DHT22;40337;52.978;6.310;2023-05-16T00:41:13;9.50;99.90
54429;DHT22;40337;52.978;6.310;2023-05-16T00:43:39;9.50;99.90
54429;DHT22;40337;52.978;6.310;2023-05-16T00:46:05;9.40;99.90
54429;DHT22;40337;52.978;6.310;2023-05-16T00:48:31;9.40;99.90
54429;DHT22;40337;52.978;6.310;2023-05-16T00:50:56;9.40;99.90
54429;DHT22;40337;52.978;6.310;2023-05-16T00:53:23;9.30;99.90
54429;DHT22;40337;52.978;6.310;2023-05-16T00:55:49;9.30;99.90
54429;DHT22;40337;52.978;6.310;2023-05-16T00:58:15;9.30;99.90
54429;DHT22;40337;52.978;6.310;2023-05-16T01:00:42;9.30;99.90
54429;DHT22;40337;52.978;6.310;2023-05-16T01:03:10;9.20;99.90
54429;DHT22;40337;52.978;6.310;2023-05-16T01:05:36;9.20;99.90
54429;DHT22;40337;52.978;6.310;2023-05-16T01:08:02;9.20;99.90
54429;DHT22;40337;52.978;6.310;2023-05-16T01:10:35;9.20;99.90
54429;DHT22;40337;52.978;6.310;2023-05-16T01:13:23;9.20;99.90
54429;DHT22;40337;52.978;6.310;2023-05-16T01:16:21;9.10;99.90
54429;DHT22;40337;52.978;6.310;2023-05-16T01:19:06;9.10;99.90
54429;DHT22;40337;52.978;6.310;2023-05-16T01:22:10;9.10;99.90
54429;DHT22;40337;52.978;6.310;2023-05-16T01:27:38;9.00;99.90
54429;DHT22;40337;52.978;6.310;2023-05-16T01:30:13;9.00;99.90
54429;DHT22;40337;52.978;6.310;2023-05-16T01:32:39;8.90;99.90
54429;DHT22;40337;52.978;6.310;2023-05-16T01:35:06;8.90;99.90
54429;DHT22;40337;52.978;6.310;2023-05-16T01:37:48;8.90;99.90
54429;DHT22;40337;52.978;6.310;2023-05-16T01:40:32;8.80;99.90
54429;DHT22;40337;52.978;6.310;2023-05-16T01:43:04;8.80;99.90
54429;DHT22;40337;52.978;6.310;2023-05-16T01:45:33;8.80;99.90
54429;DHT22;40337;52.978;6.310;2023-05-16T01:48:08;8.80;99.90
54429;DHT22;40337;52.978;6.310;2023-05-16T01:50:40;8.80;99.90
54429;DHT22;40337;52.978;6.310;2023-05-16T01:53:11;8.70;99.90
54429;DHT22;40337;52.978;6.310;2023-05-16T01:55:43;8.80;99.90
54429;DHT22;40337;52.978;6.310;2023-05-16T01:58:10;8.80;99.90
54429;DHT22;40337;52.978;6.310;2023-05-16T02:00:36;8.80;99.90
54429;DHT22;40337;52.978;6.310;2023-05-16T02:03:02;8.80;99.90
54429;DHT22;40337;52.978;6.310;2023-05-16T02:05:28;8.80;99.90
54429;DHT22;40337;52.978;6.310;2023-05-16T02:07:53;8.70;99.90
54429;DHT22;40337;52.978;6.310;2023-05-16T02:10:19;8.70;99.90
54429;DHT22;40337;52.978;6.310;2023-05-16T02:12:45;8.70;99.90
54429;DHT22;40337;52.978;6.310;2023-05-16T02:15:11;8.60;99.90
54429;DHT22;40337;52.978;6.310;2023-05-16T02:17:36;8.60;99.90
54429;DHT22;40337;52.978;6.310;2023-05-16T02:20:02;8.60;99.90
54429;DHT22;40337;52.978;6.310;2023-05-16T02:22:32;8.50;99.90
54429;DHT22;40337;52.978;6.310;2023-05-16T02:24:59;8.50;99.90
54429;DHT22;40337;52.978;6.310;2023-05-16T02:27:25;8.50;99.90
54429;DHT22;40337;52.978;6.310;2023-05-16T02:29:50;8.50;99.90
54429;DHT22;40337;52.978;6.310;2023-05-16T02:32:16;8.50;99.90
54429;DHT22;40337;52.978;6.310;2023-05-16T02:34:41;8.50;99.90
54429;DHT22;40337;52.978;6.310;2023-05-16T02:37:07;8.40;99.90
54429;DHT22;40337;52.978;6.310;2023-05-16T02:39:33;8.30;99.90
54429;DHT22;40337;52.978;6.310;2023-05-16T02:41:58;8.40;99.90
54429;DHT22;40337;52.978;6.310;2023-05-16T02:44:24;8.30;99.90
54429;DHT22;40337;52.978;6.310;2023-05-16T02:46:49;8.30;99.90
54429;DHT22;40337;52.978;6.310;2023-05-16T02:49:15;8.30;99.90
54429;DHT22;40337;52.978;6.310;2023-05-16T02:51:41;8.20;99.90
54429;DHT22;40337;52.978;6.310;2023-05-16T02:54:07;8.20;99.90
54429;DHT22;40337;52.978;6.310;2023-05-16T02:56:34;8.10;99.90
54429;DHT22;40337;52.978;6.310;2023-05-16T02:59:00;8.10;99.90
54429;DHT22;40337;52.978;6.310;2023-05-16T03:01:26;8.10;99.90
54429;DHT22;40337;52.978;6.310;2023-05-16T03:03:51;8.00;99.90
54429;DHT22;40337;52.978;6.310;2023-05-16T03:06:17;8.00;99.90
54429;DHT22;40337;52.978;6.310;2023-05-16T03:08:42;7.90;99.90
54429;DHT22;40337;52.978;6.310;2023-05-16T03:11:08;7.90;99.90
54429;DHT22;40337;52.978;6.310;2023-05-16T03:13:34;7.90;99.90
54429;DHT22;40337;52.978;6.310;2023-05-16T03:15:59;7.80;99.90
54429;DHT22;40337;52.978;6.310;2023-05-16T03:18:25;7.90;99.90
54429;DHT22;40337;52.978;6.310;2023-05-16T03:20:50;7.90;99.90
54429;DHT22;40337;52.978;6.310;2023-05-16T03:23:22;7.80;99.90
54429;DHT22;40337;52.978;6.310;2023-05-16T03:25:48;7.80;99.90
54429;DHT22;40337;52.978;6.310;2023-05-16T03:28:16;7.80;99.90
54429;DHT22;40337;52.978;6.310;2023-05-16T03:30:42;7.70;99.90
54429;DHT22;40337;52.978;6.310;2023-05-16T03:33:08;7.80;99.90
54429;DHT22;40337;52.978;6.310;2023-05-16T03:35:34;7.80;99.90
54429;DHT22;40337;52.978;6.310;2023-05-16T03:38:00;7.70;99.90
54429;DHT22;40337;52.978;6.310;2023-05-16T03:40:26;7.70;99.90
54429;DHT22;40337;52.978;6.310;2023-05-16T03:42:52;7.60;99.90
54429;DHT22;40337;52.978;6.310;2023-05-16T03:45:18;7.70;99.90
54429;DHT22;40337;52.978;6.310;2023-05-16T03:47:43;7.60;99.90
54429;DHT22;40337;52.978;6.310;2023-05-16T03:50:09;7.60;99.90
54429;DHT22;40337;52.978;6.310;2023-05-16T03:52:36;7.60;99.90
54429;DHT22;40337;52.978;6.310;2023-05-16T03:55:02;7.60;99.90
54429;DHT22;40337;52.978;6.310;2023-05-16T03:57:32;7.60;99.90
54429;DHT22;40337;52.978;6.310;2023-05-16T03:59:57;7.60;99.90
54429;DHT22;40337;52.978;6.310;2023-05-16T04:02:23;7.60;99.90
54429;DHT22;40337;52.978;6.310;2023-05-16T04:04:49;7.50;99.90
54429;DHT22;40337;52.978;6.310;2023-05-16T04:07:14;7.50;99.90
54429;DHT22;40337;52.978;6.310;2023-05-16T04:09:40;7.50;99.90
54429;DHT22;40337;52.978;6.310;2023-05-16T04:12:06;7.50;99.90
54429;DHT22;40337;52.978;6.310;2023-05-16T04:14:32;7.50;99.90
54429;DHT22;40337;52.978;6.310;2023-05-16T04:16:58;7.50;99.90
54429;DHT22;40337;52.978;6.310;2023-05-16T04:19:24;7.50;99.90
54429;DHT22;40337;52.978;6.310;2023-05-16T04:21:50;7.60;99.90
54429;DHT22;40337;52.978;6.310;2023-05-16T04:24:16;7.60;99.90
54429;DHT22;40337;52.978;6.310;2023-05-16T04:26:42;7.60;99.90
54429;DHT22;40337;52.978;6.310;2023-05-16T04:29:07;7.60;99.90
54429;DHT22;40337;52.978;6.310;2023-05-16T04:31:33;7.60;99.90
54429;DHT22;40337;52.978;6.310;2023-05-16T04:33:58;7.70;99.90
54429;DHT22;40337;52.978;6.310;2023-05-16T04:36:24;7.70;99.90
54429;DHT22;40337;52.978;6.310;2023-05-16T04:38:50;7.70;99.90
54429;DHT22;40337;52.978;6.310;2023-05-16T04:41:16;7.80;99.90
54429;DHT22;40337;52.978;6.310;2023-05-16T04:43:43;7.80;99.90
54429;DHT22;40337;52.978;6.310;2023-05-16T04:46:08;7.80;99.90
54429;DHT22;40337;52.978;6.310;2023-05-16T04:48:34;7.80;99.90
54429;DHT22;40337;52.978;6.310;2023-05-16T04:51:00;7.80;99.90
54429;DHT22;40337;52.978;6.310;2023-05-16T04:53:25;7.90;99.90
54429;DHT22;40337;52.978;6.310;2023-05-16T04:55:51;7.90;99.90
54429;DHT22;40337;52.978;6.310;2023-05-16T04:58:17;8.00;99.90
54429;DHT22;40337;52.978;6.310;2023-05-16T05:00:43;8.00;99.90
54429;DHT22;40337;52.978;6.310;2023-05-16T05:03:08;8.10;99.90
54429;DHT22;40337;52.978;6.310;2023-05-16T05:05:34;8.10;99.90
54429;DHT22;40337;52.978;6.310;2023-05-16T05:07:59;8.10;99.90
54429;DHT22;40337;52.978;6.310;2023-05-16T05:10:26;8.10;99.90
54429;DHT22;40337;52.978;6.310;2023-05-16T05:12:55;8.10;99.90
54429;DHT22;40337;52.978;6.310;2023-05-16T05:15:21;8.00;99.90
54429;DHT22;40337;52.978;6.310;2023-05-16T05:17:46;8.10;99.90
54429;DHT22;40337;52.978;6.310;2023-05-16T05:20:12;8.10;99.90
54429;DHT22;40337;52.978;6.310;2023-05-16T05:22:38;8.20;99.90
54429;DHT22;40337;52.978;6.310;2023-05-16T05:25:04;8.20;99.90
54429;DHT22;40337;52.978;6.310;2023-05-16T05:27:30;8.30;99.90
54429;DHT22;40337;52.978;6.310;2023-05-16T05:29:56;8.30;99.90
54429;DHT22;40337;52.978;6.310;2023-05-16T05:32:21;8.40;99.90
54429;DHT22;40337;52.978;6.310;2023-05-16T05:34:47;8.50;99.90
54429;DHT22;40337;52.978;6.310;2023-05-16T05:37:13;8.50;99.90
54429;DHT22;40337;52.978;6.310;2023-05-16T05:39:38;8.60;99.90
54429;DHT22;40337;52.978;6.310;2023-05-16T05:42:04;8.70;99.90
54429;DHT22;40337;52.978;6.310;2023-05-16T05:44:30;8.80;99.90
54429;DHT22;40337;52.978;6.310;2023-05-16T05:46:56;8.80;99.90
54429;DHT22;40337;52.978;6.310;2023-05-16T05:49:23;8.90;99.90
54429;DHT22;40337;52.978;6.310;2023-05-16T05:51:49;9.00;99.90
54429;DHT22;40337;52.978;6.310;2023-05-16T05:54:17;9.00;99.90
54429;DHT22;40337;52.978;6.310;2023-05-16T05:56:43;9.10;99.90
54429;DHT22;40337;52.978;6.310;2023-05-16T05:59:08;9.20;99.90
54429;DHT22;40337;52.978;6.310;2023-05-16T06:01:34;9.20;99.90
54429;DHT22;40337;52.978;6.310;2023-05-16T06:03:59;9.30;99.90
54429;DHT22;40337;52.978;6.310;2023-05-16T06:06:25;9.40;99.90
54429;DHT22;40337;52.978;6.310;2023-05-16T06:08:50;9.50;99.90
54429;DHT22;40337;52.978;6.310;2023-05-16T06:11:18;9.60;99.90
54429;DHT22;40337;52.978;6.310;2023-05-16T06:13:43;10.10;99.90
54429;DHT22;40337;52.978;6.310;2023-05-16T06:16:09;10.80;99.90
54429;DHT22;40337;52.978;6.310;2023-05-16T06:18:34;11.60;99.90
54429;DHT22;40337;52.978;6.310;2023-05-16T06:21:00;12.10;99.90
54429;DHT22;40337;52.978;6.310;2023-05-16T06:23:26;12.80;99.90
54429;DHT22;40337;52.978;6.310;2023-05-16T06:25:52;13.20;99.90
54429;DHT22;40337;52.978;6.310;2023-05-16T06:28:17;13.10;99.90
54429;DHT22;40337;52.978;6.310;2023-05-16T06:30:43;12.80;99.90
54429;DHT22;40337;52.978;6.310;2023-05-16T06:33:08;12.30;99.90
54429;DHT22;40337;52.978;6.310;2023-05-16T06:35:34;11.90;99.90
54429;DHT22;40337;52.978;6.310;2023-05-16T06:37:59;11.60;99.90
54429;DHT22;40337;52.978;6.310;2023-05-16T06:40:25;11.40;99.90
54429;DHT22;40337;52.978;6.310;2023-05-16T06:42:50;11.50;99.90
54429;DHT22;40337;52.978;6.310;2023-05-16T06:45:16;12.10;99.90
54429;DHT22;40337;52.978;6.310;2023-05-16T06:47:41;12.80;99.90
54429;DHT22;40337;52.978;6.310;2023-05-16T06:50:07;13.40;99.90
54429;DHT22;40337;52.978;6.310;2023-05-16T06:52:34;14.00;99.90
54429;DHT22;40337;52.978;6.310;2023-05-16T06:54:59;14.30;99.90
54429;DHT22;40337;52.978;6.310;2023-05-16T06:57:25;14.70;99.90
54429;DHT22;40337;52.978;6.310;2023-05-16T06:59:51;14.90;99.90
54429;DHT22;40337;52.978;6.310;2023-05-16T07:02:16;14.90;99.90
54429;DHT22;40337;52.978;6.310;2023-05-16T07:04:42;15.00;99.90
54429;DHT22;40337;52.978;6.310;2023-05-16T07:07:07;14.90;99.90
54429;DHT22;40337;52.978;6.310;2023-05-16T07:09:33;15.30;99.90
54429;DHT22;40337;52.978;6.310;2023-05-16T07:11:59;15.60;99.90
54429;DHT22;40337;52.978;6.310;2023-05-16T07:14:25;15.70;99.90
54429;DHT22;40337;52.978;6.310;2023-05-16T07:16:50;15.90;99.90
54429;DHT22;40337;52.978;6.310;2023-05-16T07:19:16;15.80;99.90
54429;DHT22;40337;52.978;6.310;2023-05-16T07:21:42;15.90;99.90
54429;DHT22;40337;52.978;6.310;2023-05-16T07:24:07;15.50;99.90
54429;DHT22;40337;52.978;6.310;2023-05-16T07:26:33;15.40;99.90
54429;DHT22;40337;52.978;6.310;2023-05-16T07:28:59;15.50;99.90
54429;DHT22;40337;52.978;6.310;2023-05-16T07:31:26;15.90;99.90
54429;DHT22;40337;52.978;6.310;2023-05-16T07:33:52;15.90;99.90
54429;DHT22;40337;52.978;6.310;2023-05-16T07:36:18;15.80;99.90
54429;DHT22;40337;52.978;6.310;2023-05-16T07:38:43;15.90;99.90
54429;DHT22;40337;52.978;6.310;2023-05-16T07:41:09;16.30;99.90
54429;DHT22;40337;52.978;6.310;2023-05-16T07:43:35;15.60;99.90
54429;DHT22;40337;52.978;6.310;2023-05-16T07:46:01;14.60;99.90
54429;DHT22;40337;52.978;6.310;2023-05-16T07:48:27;13.90;99.90
54429;DHT22;40337;52.978;6.310;2023-05-16T07:50:53;13.10;99.90
54429;DHT22;40337;52.978;6.310;2023-05-16T07:53:20;12.90;99.90
54429;DHT22;40337;52.978;6.310;2023-05-16T07:55:46;13.20;99.90
54429;DHT22;40337;52.978;6.310;2023-05-16T07:58:12;13.70;99.90
54429;DHT22;40337;52.978;6.310;2023-05-16T08:00:37;14.00;99.90
54429;DHT22;40337;52.978;6.310;2023-05-16T08:03:03;14.40;99.90
54429;DHT22;40337;52.978;6.310;2023-05-16T08:05:28;14.80;99.90
54429;DHT22;40337;52.978;6.310;2023-05-16T08:07:54;15.00;99.90
54429;DHT22;40337;52.978;6.310;2023-05-16T08:10:20;15.20;99.90
54429;DHT22;40337;52.978;6.310;2023-05-16T08:12:46;15.60;99.90
54429;DHT22;40337;52.978;6.310;2023-05-16T08:15:12;15.90;99.90
54429;DHT22;40337;52.978;6.310;2023-05-16T08:17:38;15.50;99.90
54429;DHT22;40337;52.978;6.310;2023-05-16T08:20:04;15.10;99.90
54429;DHT22;40337;52.978;6.310;2023-05-16T08:22:31;14.30;99.90
54429;DHT22;40337;52.978;6.310;2023-05-16T08:24:56;13.70;99.90
54429;DHT22;40337;52.978;6.310;2023-05-16T08:27:23;13.30;99.90
54429;DHT22;40337;52.978;6.310;2023-05-16T08:29:49;13.40;99.90
54429;DHT22;40337;52.978;6.310;2023-05-16T08:32:14;13.70;99.90
54429;DHT22;40337;52.978;6.310;2023-05-16T08:34:40;14.20;99.90
54429;DHT22;40337;52.978;6.310;2023-05-16T08:37:06;14.60;99.90
54429;DHT22;40337;52.978;6.310;2023-05-16T08:39:32;14.70;99.90
54429;DHT22;40337;52.978;6.310;2023-05-16T08:41:57;14.50;99.90
54429;DHT22;40337;52.978;6.310;2023-05-16T08:44:23;14.20;99.90
54429;DHT22;40337;52.978;6.310;2023-05-16T08:46:50;13.90;99.90
54429;DHT22;40337;52.978;6.310;2023-05-16T08:49:20;13.60;99.90
54429;DHT22;40337;52.978;6.310;2023-05-16T08:51:47;13.90;99.90
54429;DHT22;40337;52.978;6.310;2023-05-16T08:54:14;14.40;99.90
54429;DHT22;40337;52.978;6.310;2023-05-16T08:56:40;14.90;99.90
54429;DHT22;40337;52.978;6.310;2023-05-16T08:59:06;15.20;99.90
54429;DHT22;40337;52.978;6.310;2023-05-16T09:01:32;15.60;99.90
54429;DHT22;40337;52.978;6.310;2023-05-16T09:03:59;16.00;99.90
54429;DHT22;40337;52.978;6.310;2023-05-16T09:06:25;16.30;99.90
54429;DHT22;40337;52.978;6.310;2023-05-16T09:08:52;16.60;99.90
54429;DHT22;40337;52.978;6.310;2023-05-16T09:11:18;17.00;99.90
54429;DHT22;40337;52.978;6.310;2023-05-16T09:13:45;17.40;99.90
54429;DHT22;40337;52.978;6.310;2023-05-16T09:16:15;17.40;99.90
54429;DHT22;40337;52.978;6.310;2023-05-16T09:18:43;17.00;99.80
54429;DHT22;40337;52.978;6.310;2023-05-16T09:21:09;16.50;99.60
54429;DHT22;40337;52.978;6.310;2023-05-16T09:23:35;16.10;99.90
54429;DHT22;40337;52.978;6.310;2023-05-16T09:26:02;15.80;99.90
54429;DHT22;40337;52.978;6.310;2023-05-16T09:28:30;15.80;99.90
54429;DHT22;40337;52.978;6.310;2023-05-16T09:30:56;16.30;99.90
54429;DHT22;40337;52.978;6.310;2023-05-16T09:33:26;16.50;99.90
54429;DHT22;40337;52.978;6.310;2023-05-16T09:35:57;16.40;99.90
54429;DHT22;40337;52.978;6.310;2023-05-16T09:38:23;16.10;99.90
54429;DHT22;40337;52.978;6.310;2023-05-16T09:40:50;16.00;99.90
54429;DHT22;40337;52.978;6.310;2023-05-16T09:43:16;15.80;99.90
54429;DHT22;40337;52.978;6.310;2023-05-16T09:45:46;15.70;99.90
54429;DHT22;40337;52.978;6.310;2023-05-16T09:48:13;15.60;99.90
54429;DHT22;40337;52.978;6.310;2023-05-16T09:50:39;15.50;99.90
54429;DHT22;40337;52.978;6.310;2023-05-16T09:53:06;15.90;99.90
54429;DHT22;40337;52.978;6.310;2023-05-16T09:55:32;16.40;99.90
54429;DHT22;40337;52.978;6.310;2023-05-16T09:57:58;16.80;98.10
54429;DHT22;40337;52.978;6.310;2023-05-16T10:00:31;17.00;98.00
54429;DHT22;40337;52.978;6.310;2023-05-16T10:02:58;17.20;97.70
54429;DHT22;40337;52.978;6.310;2023-05-16T10:05:26;16.80;97.30
54429;DHT22;40337;52.978;6.310;2023-05-16T10:07:55;17.20;97.40
54429;DHT22;40337;52.978;6.310;2023-05-16T10:10:22;16.90;96.50
54429;DHT22;40337;52.978;6.310;2023-05-16T10:12:48;16.60;95.70
54429;DHT22;40337;52.978;6.310;2023-05-16T10:15:15;16.50;96.60
54429;DHT22;40337;52.978;6.310;2023-05-16T10:17:42;16.10;96.30
54429;DHT22;40337;52.978;6.310;2023-05-16T10:20:11;16.30;95.70
54429;DHT22;40337;52.978;6.310;2023-05-16T10:22:41;16.70;95.50
54429;DHT22;40337;52.978;6.310;2023-05-16T10:27:35;17.50;95.40
54429;DHT22;40337;52.978;6.310;2023-05-16T10:30:01;17.20;94.30
54429;DHT22;40337;52.978;6.310;2023-05-16T10:32:27;16.80;95.00
54429;DHT22;40337;52.978;6.310;2023-05-16T10:34:54;16.20;94.70
54429;DHT22;40337;52.978;6.310;2023-05-16T10:37:23;15.70;98.10
54429;DHT22;40337;52.978;6.310;2023-05-16T10:39:50;14.80;99.90
54429;DHT22;40337;52.978;6.310;2023-05-16T10:42:16;14.50;99.90
54429;DHT22;40337;52.978;6.310;2023-05-16T10:44:42;14.80;99.90
54429;DHT22;40337;52.978;6.310;2023-05-16T10:47:08;15.40;99.90
54429;DHT22;40337;52.978;6.310;2023-05-16T10:49:34;15.60;99.90
54429;DHT22;40337;52.978;6.310;2023-05-16T10:52:10;15.60;99.90
54429;DHT22;40337;52.978;6.310;2023-05-16T10:54:40;15.40;99.90
54429;DHT22;40337;52.978;6.310;2023-05-16T10:57:10;15.30;99.90
54429;DHT22;40337;52.978;6.310;2023-05-16T10:59:41;15.10;99.90
54429;DHT22;40337;52.978;6.310;2023-05-16T11:02:27;15.00;99.90
54429;DHT22;40337;52.978;6.310;2023-05-16T11:04:57;15.30;99.90
54429;DHT22;40337;52.978;6.310;2023-05-16T11:07:32;15.80;99.90
54429;DHT22;40337;52.978;6.310;2023-05-16T11:10:09;16.30;99.90
54429;DHT22;40337;52.978;6.310;2023-05-16T11:12:49;16.80;99.90
54429;DHT22;40337;52.978;6.310;2023-05-16T11:15:25;17.00;99.90
54429;DHT22;40337;52.978;6.310;2023-05-16T11:18:06;16.80;99.90
54429;DHT22;40337;52.978;6.310;2023-05-16T11:20:37;16.60;99.90
54429;DHT22;40337;52.978;6.310;2023-05-16T11:25:42;17.00;99.90
54429;DHT22;40337;52.978;6.310;2023-05-16T11:28:11;16.80;99.30
54429;DHT22;40337;52.978;6.310;2023-05-16T11:30:42;16.70;99.90
54429;DHT22;40337;52.978;6.310;2023-05-16T11:33:08;16.40;99.90
54429;DHT22;40337;52.978;6.310;2023-05-16T11:35:34;15.80;99.90
54429;DHT22;40337;52.978;6.310;2023-05-16T11:38:01;15.40;99.90
54429;DHT22;40337;52.978;6.310;2023-05-16T11:40:27;14.80;99.90
54429;DHT22;40337;52.978;6.310;2023-05-16T11:42:52;14.30;99.90
54429;DHT22;40337;52.978;6.310;2023-05-16T11:45:19;14.00;99.90
54429;DHT22;40337;52.978;6.310;2023-05-16T11:47:47;14.20;99.90
54429;DHT22;40337;52.978;6.310;2023-05-16T11:50:20;14.80;99.90
54429;DHT22;40337;52.978;6.310;2023-05-16T11:52:49;15.50;99.90
54429;DHT22;40337;52.978;6.310;2023-05-16T11:55:22;15.80;99.90
54429;DHT22;40337;52.978;6.310;2023-05-16T11:57:50;15.90;99.90
54429;DHT22;40337;52.978;6.310;2023-05-16T12:00:17;16.30;99.90
54429;DHT22;40337;52.978;6.310;2023-05-16T12:02:44;16.50;99.90
54429;DHT22;40337;52.978;6.310;2023-05-16T12:05:12;16.90;99.90
54429;DHT22;40337;52.978;6.310;2023-05-16T12:07:39;17.10;99.90
54429;DHT22;40337;52.978;6.310;2023-05-16T12:10:09;17.10;99.90
54429;DHT22;40337;52.978;6.310;2023-05-16T12:12:36;16.90;99.90
54429;DHT22;40337;52.978;6.310;2023-05-16T12:15:04;16.60;99.90
54429;DHT22;40337;52.978;6.310;2023-05-16T12:17:34;16.30;99.90
54429;DHT22;40337;52.978;6.310;2023-05-16T12:20:01;16.00;99.90
54429;DHT22;40337;52.978;6.310;2023-05-16T12:22:30;16.00;99.90
54429;DHT22;40337;52.978;6.310;2023-05-16T12:24:58;15.70;99.90
54429;DHT22;40337;52.978;6.310;2023-05-16T12:27:24;16.30;99.90
54429;DHT22;40337;52.978;6.310;2023-05-16T12:29:50;16.30;99.70
54429;DHT22;40337;52.978;6.310;2023-05-16T12:32:20;16.10;98.90
54429;DHT22;40337;52.978;6.310;2023-05-16T12:34:52;15.80;98.90
54429;DHT22;40337;52.978;6.310;2023-05-16T12:37:19;15.50;99.70
54429;DHT22;40337;52.978;6.310;2023-05-16T12:39:45;15.50;99.90
54429;DHT22;40337;52.978;6.310;2023-05-16T12:42:12;15.80;99.90
54429;DHT22;40337;52.978;6.310;2023-05-16T12:44:38;16.10;99.90
54429;DHT22;40337;52.978;6.310;2023-05-16T12:47:10;16.00;99.80
54429;DHT22;40337;52.978;6.310;2023-05-16T12:49:42;15.90;98.50
54429;DHT22;40337;52.978;6.310;2023-05-16T12:52:16;15.90;98.90
54429;DHT22;40337;52.978;6.310;2023-05-16T12:54:44;15.90;98.30
54429;DHT22;40337;52.978;6.310;2023-05-16T12:57:09;15.80;98.50
54429;DHT22;40337;52.978;6.310;2023-05-16T12:59:35;15.60;98.00
54429;DHT22;40337;52.978;6.310;2023-05-16T13:02:01;15.40;98.20
54429;DHT22;40337;52.978;6.310;2023-05-16T13:04:28;15.30;99.40
54429;DHT22;40337;52.978;6.310;2023-05-16T13:06:53;15.40;99.90
54429;DHT22;40337;52.978;6.310;2023-05-16T13:09:19;15.40;99.90
54429;DHT22;40337;52.978;6.310;2023-05-16T13:11:44;15.50;99.60
54429;DHT22;40337;52.978;6.310;2023-05-16T13:14:10;15.60;99.00
54429;DHT22;40337;52.978;6.310;2023-05-16T13:16:35;15.40;98.50
54429;DHT22;40337;52.978;6.310;2023-05-16T13:19:01;15.30;98.40
54429;DHT22;40337;52.978;6.310;2023-05-16T13:21:27;15.40;98.80
54429;DHT22;40337;52.978;6.310;2023-05-16T13:23:56;15.80;98.00
54429;DHT22;40337;52.978;6.310;2023-05-16T13:26:21;16.20;96.70
54429;DHT22;40337;52.978;6.310;2023-05-16T13:28:47;16.30;96.50
54429;DHT22;40337;52.978;6.310;2023-05-16T13:31:15;16.10;96.90
54429;DHT22;40337;52.978;6.310;2023-05-16T13:33:41;16.00;97.40
54429;DHT22;40337;52.978;6.310;2023-05-16T13:36:07;15.90;97.50
54429;DHT22;40337;52.978;6.310;2023-05-16T13:38:32;15.90;97.30
54429;DHT22;40337;52.978;6.310;2023-05-16T13:40:58;16.00;97.70
54429;DHT22;40337;52.978;6.310;2023-05-16T13:43:23;16.20;98.40
54429;DHT22;40337;52.978;6.310;2023-05-16T13:45:49;16.10;97.80
54429;DHT22;40337;52.978;6.310;2023-05-16T13:48:14;15.80;97.90
54429;DHT22;40337;52.978;6.310;2023-05-16T13:50:40;15.70;98.20
54429;DHT22;40337;52.978;6.310;2023-05-16T13:53:06;15.60;98.70
54429;DHT22;40337;52.978;6.310;2023-05-16T13:55:32;15.50;99.00
54429;DHT22;40337;52.978;6.310;2023-05-16T13:57:58;15.30;99.50
54429;DHT22;40337;52.978;6.310;2023-05-16T14:00:24;15.00;99.90
54429;DHT22;40337;52.978;6.310;2023-05-16T14:02:51;14.80;99.90
54429;DHT22;40337;52.978;6.310;2023-05-16T14:05:17;14.80;99.90
54429;DHT22;40337;52.978;6.310;2023-05-16T14:07:42;15.10;99.90
54429;DHT22;40337;52.978;6.310;2023-05-16T14:10:08;15.40;99.90
54429;DHT22;40337;52.978;6.310;2023-05-16T14:12:34;15.60;99.90
54429;DHT22;40337;52.978;6.310;2023-05-16T14:14:59;16.00;99.90
54429;DHT22;40337;52.978;6.310;2023-05-16T14:17:25;16.40;99.90
54429;DHT22;40337;52.978;6.310;2023-05-16T14:19:51;16.30;99.30
54429;DHT22;40337;52.978;6.310;2023-05-16T14:22:18;16.30;99.20
54429;DHT22;40337;52.978;6.310;2023-05-16T14:24:43;16.50;99.60
54429;DHT22;40337;52.978;6.310;2023-05-16T14:27:09;16.50;99.00
54429;DHT22;40337;52.978;6.310;2023-05-16T14:29:35;16.40;99.90
54429;DHT22;40337;52.978;6.310;2023-05-16T14:32:00;16.20;99.90
54429;DHT22;40337;52.978;6.310;2023-05-16T14:34:26;15.90;99.90
54429;DHT22;40337;52.978;6.310;2023-05-16T14:36:51;15.50;99.90
54429;DHT22;40337;52.978;6.310;2023-05-16T14:39:17;15.40;99.90
54429;DHT22;40337;52.978;6.310;2023-05-16T14:41:43;15.20;99.90
54429;DHT22;40337;52.978;6.310;2023-05-16T14:44:08;15.20;99.90
54429;DHT22;40337;52.978;6.310;2023-05-16T14:46:34;15.00;99.90
54429;DHT22;40337;52.978;6.310;2023-05-16T14:49:00;14.90;99.90
54429;DHT22;40337;52.978;6.310;2023-05-16T14:51:25;14.80;99.90
54429;DHT22;40337;52.978;6.310;2023-05-16T14:53:51;14.80;99.90
54429;DHT22;40337;52.978;6.310;2023-05-16T14:56:16;14.80;99.90
54429;DHT22;40337;52.978;6.310;2023-05-16T14:58:42;14.80;99.90
54429;DHT22;40337;52.978;6.310;2023-05-16T15:01:08;14.90;99.90
54429;DHT22;40337;52.978;6.310;2023-05-16T15:03:35;14.90;99.90
54429;DHT22;40337;52.978;6.310;2023-05-16T15:06:01;15.00;99.90
54429;DHT22;40337;52.978;6.310;2023-05-16T15:08:26;15.10;99.90
54429;DHT22;40337;52.978;6.310;2023-05-16T15:10:52;14.90;99.90
54429;DHT22;40337;52.978;6.310;2023-05-16T15:13:17;14.80;99.90
54429;DHT22;40337;52.978;6.310;2023-05-16T15:15:43;14.60;99.90
54429;DHT22;40337;52.978;6.310;2023-05-16T15:18:09;14.70;99.90
54429;DHT22;40337;52.978;6.310;2023-05-16T15:20:36;14.60;99.90
54429;DHT22;40337;52.978;6.310;2023-05-16T15:23:02;14.60;99.90
54429;DHT22;40337;52.978;6.310;2023-05-16T15:25:27;14.50;99.90
54429;DHT22;40337;52.978;6.310;2023-05-16T15:27:53;14.50;99.90
54429;DHT22;40337;52.978;6.310;2023-05-16T15:30:19;14.30;99.90
54429;DHT22;40337;52.978;6.310;2023-05-16T15:32:45;14.30;99.90
54429;DHT22;40337;52.978;6.310;2023-05-16T15:35:10;14.30;99.90
54429;DHT22;40337;52.978;6.310;2023-05-16T15:37:36;14.30;99.90
54429;DHT22;40337;52.978;6.310;2023-05-16T15:40:02;14.30;99.90
54429;DHT22;40337;52.978;6.310;2023-05-16T15:42:29;14.40;99.90
54429;DHT22;40337;52.978;6.310;2023-05-16T15:44:55;14.30;99.90